createdAt,value
2019-01-17T00:00:45.608Z,70.70
2019-01-17T00:03:50.426Z,71.00
2019-01-17T00:10:39.774Z,71.10
2019-01-17T00:13:49.840Z,71.00
2019-01-17T00:16:38.962Z,71.20
2019-01-17T00:19:28.658Z,71.00
2019-01-17T00:22:15.568Z,71.10
2019-01-17T00:25:25.589Z,71.20
2019-01-17T00:28:04.324Z,71.10
2019-01-17T00:30:58.201Z,71.20
2019-01-17T00:33:55.569Z,71.20
2019-01-17T00:36:42.187Z,71.20
2019-01-17T00:39:28.894Z,70.90
2019-01-17T00:42:15.530Z,70.90
2019-01-17T00:45:09.396Z,71.00
2019-01-17T00:48:06.634Z,70.90
2019-01-17T00:50:51.844Z,70.70
2019-01-17T00:53:40.746Z,70.60
2019-01-17T00:56:26.208Z,70.50
2019-01-17T00:59:12.658Z,70.60
2019-01-17T01:02:01.890Z,70.70
2019-01-17T01:04:45.334Z,70.80
2019-01-17T01:07:34.381Z,70.90
2019-01-17T01:10:21.518Z,70.90
2019-01-17T01:13:10.192Z,71.00
2019-01-17T01:16:28.336Z,71.00
2019-01-17T01:19:19.254Z,70.90
2019-01-17T01:22:06.538Z,70.70
2019-01-17T01:24:47.241Z,70.50
2019-01-17T01:27:34.019Z,70.20
2019-01-17T01:30:15.935Z,70.20
2019-01-17T01:33:20.939Z,70.40
2019-01-17T01:36:08.378Z,70.50
2019-01-17T01:38:52.301Z,70.40
2019-01-17T01:41:51.978Z,70.40
2019-01-17T01:44:46.878Z,70.30
2019-01-17T01:47:35.222Z,70.40
2019-01-17T01:50:24.989Z,70.20
2019-01-17T01:53:06.253Z,70.10
2019-01-17T01:55:36.176Z,70.10
2019-01-17T01:58:06.161Z,70.10
2019-01-17T02:00:36.188Z,69.90
2019-01-17T02:03:05.216Z,69.80
2019-01-17T02:05:34.613Z,69.70
2019-01-17T02:08:04.950Z,69.60
2019-01-17T02:10:34.515Z,69.50
2019-01-17T02:13:05.334Z,69.50
2019-01-17T02:15:36.612Z,69.50
2019-01-17T02:18:08.000Z,69.50
2019-01-17T02:20:39.204Z,69.70
2019-01-17T02:23:12.377Z,69.80
2019-01-17T02:25:44.675Z,69.70
2019-01-17T02:28:14.387Z,69.70
2019-01-17T02:30:45.014Z,69.70
2019-01-17T02:33:15.084Z,69.60
2019-01-17T02:35:44.889Z,69.70
2019-01-17T02:38:14.228Z,69.60
2019-01-17T02:40:46.229Z,69.60
2019-01-17T02:43:17.752Z,69.60
2019-01-17T02:45:46.978Z,69.70
2019-01-17T02:48:17.189Z,69.60
2019-01-17T02:51:07.796Z,69.60
2019-01-17T02:53:38.353Z,69.60
2019-01-17T02:56:07.833Z,69.70
2019-01-17T02:58:38.025Z,69.70
2019-01-17T03:01:08.123Z,69.60
2019-01-17T03:03:37.341Z,69.60
2019-01-17T03:06:06.604Z,69.50
2019-01-17T03:08:40.302Z,69.60
2019-01-17T03:11:26.192Z,69.60
2019-01-17T03:13:56.374Z,69.60
2019-01-17T03:16:25.674Z,69.60
2019-01-17T03:18:54.933Z,69.40
2019-01-17T03:21:24.281Z,69.50
2019-01-17T03:23:53.593Z,69.30
2019-01-17T03:26:23.712Z,69.40
2019-01-17T03:28:53.727Z,69.40
2019-01-17T03:31:22.951Z,69.30
2019-01-17T03:33:52.349Z,69.20
2019-01-17T03:36:21.235Z,69.00
2019-01-17T03:38:50.836Z,68.90
2019-01-17T03:41:20.031Z,68.60
2019-01-17T03:43:49.955Z,68.60
2019-01-17T03:46:21.942Z,68.50
2019-01-17T03:48:53.823Z,68.30
2019-01-17T03:51:23.487Z,68.30
2019-01-17T03:53:58.147Z,68.20
2019-01-17T03:56:48.346Z,68.30
2019-01-17T03:59:20.728Z,68.40
2019-01-17T04:01:53.489Z,68.50
2019-01-17T04:04:23.278Z,68.50
2019-01-17T04:06:58.384Z,68.40
2019-01-17T04:09:28.671Z,68.30
2019-01-17T04:11:58.034Z,68.30
2019-01-17T04:14:28.710Z,68.20
2019-01-17T04:16:58.582Z,68.00
2019-01-17T04:19:29.729Z,67.80
2019-01-17T04:22:00.365Z,67.90
2019-01-17T04:24:32.209Z,67.90
2019-01-17T04:27:01.972Z,67.70
2019-01-17T04:29:31.248Z,67.60
2019-01-17T04:32:02.179Z,67.50
2019-01-17T04:34:31.497Z,67.50
2019-01-17T04:37:01.408Z,67.50
2019-01-17T04:39:33.859Z,67.40
2019-01-17T04:42:03.186Z,67.30
2019-01-17T04:44:33.689Z,67.20
2019-01-17T04:47:04.305Z,67.00
2019-01-17T04:49:33.621Z,66.90
2019-01-17T04:52:03.363Z,66.80
2019-01-17T04:54:34.463Z,66.60
2019-01-17T04:57:03.987Z,66.40
2019-01-17T04:59:35.266Z,66.20
2019-01-17T05:02:04.664Z,66.20
2019-01-17T05:04:36.283Z,66.40
2019-01-17T05:07:05.501Z,66.30
2019-01-17T05:09:35.396Z,66.20
2019-01-17T05:12:05.483Z,66.20
2019-01-17T05:14:36.245Z,66.20
2019-01-17T05:17:06.722Z,66.10
2019-01-17T05:19:36.727Z,66.00
2019-01-17T05:22:06.734Z,66.10
2019-01-17T05:24:36.773Z,66.20
2019-01-17T05:27:06.487Z,66.30
2019-01-17T05:29:36.407Z,66.50
2019-01-17T05:32:06.538Z,66.50
2019-01-17T05:34:39.526Z,66.50
2019-01-17T05:37:08.916Z,66.60
2019-01-17T05:39:38.589Z,66.40
2019-01-17T05:42:09.847Z,66.20
2019-01-17T05:44:42.134Z,66.00
2019-01-17T05:47:11.639Z,65.90
2019-01-17T05:49:42.853Z,65.80
2019-01-17T05:52:13.205Z,65.70
2019-01-17T05:54:43.914Z,65.60
2019-01-17T05:57:14.306Z,65.50
2019-01-17T05:59:44.782Z,65.50
2019-01-17T06:02:14.266Z,65.30
2019-01-17T06:04:43.722Z,65.30
2019-01-17T06:07:14.330Z,65.30
2019-01-17T06:09:43.369Z,65.40
2019-01-17T06:12:13.457Z,65.40
2019-01-17T06:14:42.824Z,65.40
2019-01-17T06:17:35.386Z,65.50
2019-01-17T06:20:13.804Z,65.60
2019-01-17T06:23:05.859Z,65.70
2019-01-17T06:25:41.548Z,65.50
2019-01-17T06:28:11.021Z,65.60
2019-01-17T06:30:40.581Z,65.60
2019-01-17T06:33:17.694Z,65.60
2019-01-17T06:35:53.941Z,65.50
2019-01-17T06:38:47.943Z,65.40
2019-01-17T06:41:18.229Z,65.30
2019-01-17T06:43:52.610Z,65.10
2019-01-17T06:46:32.723Z,65.00
2019-01-17T06:49:03.723Z,65.00
2019-01-17T06:51:34.772Z,65.00
2019-01-17T06:54:12.641Z,64.90
2019-01-17T06:56:51.896Z,64.70
2019-01-17T06:59:29.136Z,64.70
2019-01-17T07:02:10.133Z,64.60
2019-01-17T07:04:46.018Z,64.60
2019-01-17T07:07:15.593Z,64.60
2019-01-17T07:09:45.979Z,64.40
2019-01-17T07:12:19.248Z,64.50
2019-01-17T07:14:48.839Z,64.40
2019-01-17T07:17:18.099Z,64.30
2019-01-17T07:20:06.682Z,64.20
2019-01-17T07:22:37.618Z,64.10
2019-01-17T07:25:08.232Z,64.00
2019-01-17T07:27:37.665Z,63.90
2019-01-17T07:30:11.793Z,63.80
2019-01-17T07:32:40.872Z,63.80
2019-01-17T07:35:10.233Z,63.70
2019-01-17T07:37:39.204Z,63.80
2019-01-17T07:40:08.415Z,63.70
2019-01-17T07:42:37.458Z,63.60
2019-01-17T07:45:10.278Z,63.40
2019-01-17T07:47:39.199Z,63.50
2019-01-17T07:50:09.845Z,63.40
2019-01-17T07:52:38.841Z,63.50
2019-01-17T07:55:10.034Z,63.50
2019-01-17T07:57:39.223Z,63.60
2019-01-17T08:00:11.180Z,63.40
2019-01-17T08:05:50.739Z,63.60
2019-01-17T08:08:19.790Z,63.70
2019-01-17T08:10:48.805Z,63.90
2019-01-17T08:13:17.803Z,64.20
2019-01-17T08:15:48.260Z,64.40
2019-01-17T08:18:18.731Z,64.50
2019-01-17T08:20:47.989Z,64.40
2019-01-17T08:23:17.426Z,64.20
2019-01-17T08:25:56.340Z,64.00
2019-01-17T08:28:25.322Z,64.20
2019-01-17T08:30:58.187Z,64.00
2019-01-17T08:33:27.244Z,63.80
2019-01-17T08:35:56.629Z,63.80
2019-01-17T08:38:25.949Z,63.70
2019-01-17T08:40:55.240Z,63.70
2019-01-17T08:43:25.750Z,63.40
2019-01-17T08:45:54.813Z,63.40
2019-01-17T08:48:23.737Z,63.30
2019-01-17T08:50:54.284Z,63.20
2019-01-17T08:53:24.876Z,63.10
2019-01-17T08:55:57.388Z,63.20
2019-01-17T08:59:18.023Z,63.30
2019-01-17T09:01:47.090Z,63.00
2019-01-17T09:04:16.187Z,62.80
2019-01-17T09:07:09.558Z,62.70
2019-01-17T09:09:54.097Z,62.80
2019-01-17T09:12:23.371Z,62.80
2019-01-17T09:14:55.556Z,62.80
2019-01-17T09:17:24.998Z,62.70
2019-01-17T09:19:55.769Z,62.60
2019-01-17T09:22:39.918Z,62.60
2019-01-17T09:25:16.898Z,62.70
2019-01-17T09:27:47.074Z,62.90
2019-01-17T09:30:19.249Z,62.80
2019-01-17T09:32:51.164Z,63.00
2019-01-17T09:35:25.509Z,63.10
2019-01-17T09:37:56.395Z,63.10
2019-01-17T09:40:28.958Z,63.30
2019-01-17T09:42:58.514Z,63.70
2019-01-17T09:45:28.321Z,64.20
2019-01-17T09:48:02.013Z,65.20
2019-01-17T09:50:31.619Z,65.00
2019-01-17T09:53:01.848Z,65.10
2019-01-17T09:55:33.980Z,64.80
2019-01-17T09:58:06.886Z,64.50
2019-01-17T10:00:38.124Z,64.10
2019-01-17T10:03:07.692Z,64.10
2019-01-17T10:05:58.848Z,64.10
2019-01-17T10:08:28.233Z,64.00
2019-01-17T10:10:57.726Z,63.70
2019-01-17T10:13:37.298Z,63.70
2019-01-17T10:16:19.276Z,63.50
2019-01-17T10:19:07.241Z,63.60
2019-01-17T10:22:14.956Z,63.50
2019-01-17T10:25:25.147Z,63.20
2019-01-17T10:28:33.471Z,63.10
2019-01-17T10:31:30.251Z,63.00
2019-01-17T10:34:23.335Z,63.00
2019-01-17T10:37:47.387Z,63.00
2019-01-17T10:41:00.755Z,63.20
2019-01-17T10:43:59.976Z,63.30
2019-01-17T10:46:57.254Z,63.20
2019-01-17T10:50:10.184Z,63.10
2019-01-17T10:53:09.970Z,63.00
2019-01-17T10:56:15.232Z,62.80
2019-01-17T10:58:53.381Z,62.30
2019-01-17T11:01:44.973Z,62.20
2019-01-17T11:05:05.145Z,62.00
2019-01-17T11:08:07.473Z,61.80
2019-01-17T11:15:24.877Z,61.30
2019-01-17T11:18:25.433Z,61.20
2019-01-17T11:21:31.871Z,61.30
2019-01-17T11:24:50.042Z,61.00
2019-01-17T11:27:58.980Z,60.90
2019-01-17T11:30:55.786Z,60.90
2019-01-17T11:33:53.062Z,60.60
2019-01-17T11:37:04.667Z,60.50
2019-01-17T11:40:29.466Z,60.50
2019-01-17T11:43:42.369Z,60.50
2019-01-17T11:46:43.442Z,60.10
2019-01-17T11:49:52.042Z,60.00
2019-01-17T11:53:20.032Z,60.10
2019-01-17T11:56:40.780Z,60.90
2019-01-17T11:59:23.072Z,61.70
2019-01-17T12:02:16.774Z,62.20
2019-01-17T12:04:51.894Z,62.70
2019-01-17T12:07:26.665Z,62.60
2019-01-17T12:09:57.636Z,63.10
2019-01-17T12:12:30.412Z,63.20
2019-01-17T12:15:02.259Z,63.70
2019-01-17T12:17:43.004Z,64.00
2019-01-17T12:20:13.326Z,64.30
2019-01-17T12:22:43.672Z,64.40
2019-01-17T12:25:23.984Z,64.60
2019-01-17T12:27:59.251Z,64.70
2019-01-17T12:30:31.227Z,64.80
2019-01-17T12:33:00.376Z,65.10
2019-01-17T12:35:59.914Z,65.40
2019-01-17T12:38:29.911Z,65.60
2019-01-17T12:40:58.855Z,65.40
2019-01-17T12:43:28.925Z,65.60
2019-01-17T12:46:12.599Z,65.60
2019-01-17T12:48:43.010Z,65.50
2019-01-17T12:51:12.286Z,65.20
2019-01-17T12:53:41.864Z,65.00
2019-01-17T12:56:11.188Z,64.80
2019-01-17T12:58:40.672Z,64.70
2019-01-17T13:01:12.317Z,65.20
2019-01-17T13:03:46.340Z,64.50
2019-01-17T13:06:43.495Z,64.50
2019-01-17T13:09:22.829Z,64.50
2019-01-17T13:11:55.990Z,64.50
2019-01-17T13:14:30.230Z,64.60
2019-01-17T13:17:01.413Z,64.80
2019-01-17T13:19:30.821Z,64.80
2019-01-17T13:22:04.228Z,64.00
2019-01-17T13:24:33.367Z,62.80
2019-01-17T13:27:04.611Z,63.20
2019-01-17T13:29:33.716Z,62.30
2019-01-17T13:32:04.133Z,63.80
2019-01-17T13:34:35.619Z,63.70
2019-01-17T13:37:06.967Z,63.70
2019-01-17T13:39:36.422Z,65.00
2019-01-17T13:42:06.691Z,66.40
2019-01-17T13:44:36.997Z,67.30
2019-01-17T13:47:06.122Z,67.70
2019-01-17T13:49:36.058Z,67.50
2019-01-17T13:52:06.212Z,67.60
2019-01-17T13:54:38.250Z,68.20
2019-01-17T13:57:07.566Z,68.10
2019-01-17T13:59:37.021Z,67.90
2019-01-17T14:02:10.313Z,68.00
2019-01-17T14:04:41.055Z,68.40
2019-01-17T14:07:13.221Z,68.80
2019-01-17T14:09:42.757Z,69.10
2019-01-17T14:12:12.166Z,69.20
2019-01-17T14:14:41.485Z,69.50
2019-01-17T14:17:10.629Z,69.70
2019-01-17T14:19:40.771Z,69.80
2019-01-17T14:22:10.173Z,70.00
2019-01-17T14:24:39.729Z,70.00
2019-01-17T14:27:14.045Z,70.10
2019-01-17T14:29:42.146Z,70.50
2019-01-17T14:32:12.618Z,70.80
2019-01-17T14:35:39.084Z,71.00
2019-01-17T14:38:02.228Z,71.40
2019-01-17T14:47:28.597Z,71.90
2019-01-17T14:49:57.666Z,71.40
2019-01-17T14:52:28.537Z,71.30
2019-01-17T14:55:14.667Z,71.50
2019-01-17T14:57:54.440Z,71.80
2019-01-17T15:01:01.210Z,72.00
2019-01-17T15:03:45.042Z,71.90
2019-01-17T15:06:18.718Z,71.70
2019-01-17T15:08:54.050Z,72.00
2019-01-17T15:12:04.060Z,72.00
2019-01-17T15:14:34.298Z,71.90
2019-01-17T15:17:05.939Z,71.80
2019-01-17T15:19:54.631Z,71.60
2019-01-17T15:22:27.533Z,71.60
2019-01-17T15:24:57.743Z,71.60
2019-01-17T15:27:48.989Z,71.60
2019-01-17T15:30:29.926Z,71.50
2019-01-17T15:36:51.096Z,71.70
2019-01-17T15:39:22.277Z,72.40
2019-01-17T15:41:56.877Z,71.90
2019-01-17T15:44:43.030Z,72.00
2019-01-17T15:47:13.988Z,72.10
2019-01-17T15:49:45.169Z,71.80
2019-01-17T15:52:18.737Z,71.80
2019-01-17T15:54:48.097Z,71.80
2019-01-17T15:57:22.376Z,71.50
2019-01-17T15:59:52.599Z,71.30
2019-01-17T16:02:22.412Z,71.10
2019-01-17T16:05:00.734Z,71.00
2019-01-17T16:07:43.664Z,70.20
2019-01-17T16:10:14.781Z,69.90
2019-01-17T16:12:47.546Z,69.60
2019-01-17T16:15:22.054Z,69.20
2019-01-17T16:17:55.271Z,69.00
2019-01-17T16:20:26.827Z,68.60
2019-01-17T16:22:58.434Z,68.50
2019-01-17T16:25:32.404Z,68.30
2019-01-17T16:28:03.979Z,68.10
2019-01-17T16:30:34.207Z,67.70
2019-01-17T16:33:03.358Z,67.30
2019-01-17T16:35:32.613Z,66.90
2019-01-17T16:38:05.292Z,66.40
2019-01-17T16:40:36.541Z,66.40
2019-01-17T16:43:05.630Z,66.20
2019-01-17T16:45:35.603Z,66.00
2019-01-17T16:48:05.209Z,66.00
2019-01-17T16:50:34.478Z,65.40
2019-01-17T16:53:04.767Z,65.00
2019-01-17T16:56:04.726Z,65.20
2019-01-17T16:58:35.885Z,64.80
2019-01-17T17:01:06.675Z,64.30
2019-01-17T17:03:51.972Z,63.80
2019-01-17T17:06:40.566Z,63.70
2019-01-17T17:09:09.714Z,63.30
2019-01-17T17:11:47.555Z,62.80
2019-01-17T17:14:20.219Z,63.00
2019-01-17T17:17:08.889Z,63.20
2019-01-17T17:19:41.322Z,62.70
2019-01-17T17:22:10.455Z,62.50
2019-01-17T17:24:54.767Z,62.30
2019-01-17T17:27:25.622Z,62.20
2019-01-17T17:29:55.906Z,62.20
2019-01-17T17:32:25.201Z,62.10
2019-01-17T17:34:54.473Z,62.20
2019-01-17T17:37:23.866Z,62.20
2019-01-17T17:39:53.270Z,62.20
2019-01-17T17:42:25.983Z,61.70
2019-01-17T17:44:55.408Z,61.80
2019-01-17T17:47:24.399Z,61.70
2019-01-17T17:49:54.033Z,61.50
2019-01-17T17:52:22.902Z,61.60
2019-01-17T17:54:52.057Z,61.20
2019-01-17T17:57:21.436Z,61.40
2019-01-17T17:59:51.710Z,61.30
2019-01-17T18:02:26.539Z,61.30
2019-01-17T18:04:58.429Z,61.50
2019-01-17T18:07:27.557Z,61.30
2019-01-17T18:09:59.340Z,61.40
2019-01-17T18:12:30.282Z,61.20
2019-01-17T18:14:59.929Z,61.20
2019-01-17T18:17:29.089Z,61.20
2019-01-17T18:19:59.141Z,60.80
2019-01-17T18:22:28.242Z,60.70
2019-01-17T18:24:57.567Z,60.70
2019-01-17T18:27:26.577Z,60.70
2019-01-17T18:29:56.530Z,60.80
2019-01-17T18:32:27.897Z,60.70
2019-01-17T18:34:56.948Z,60.40
2019-01-17T18:37:32.343Z,60.30
2019-01-17T18:40:12.849Z,60.20
2019-01-17T18:42:46.841Z,59.70
2019-01-17T18:45:21.198Z,59.40
2019-01-17T18:47:50.154Z,59.40
2019-01-17T18:50:24.564Z,58.80
2019-01-17T18:52:54.146Z,58.90
2019-01-17T18:55:39.610Z,58.50
2019-01-17T18:58:15.736Z,58.60
2019-01-17T19:00:45.553Z,58.00
2019-01-17T19:03:15.131Z,57.80
2019-01-17T19:05:44.007Z,57.80
2019-01-17T19:08:13.024Z,57.70
2019-01-17T19:10:42.221Z,57.80
2019-01-17T19:13:11.344Z,57.70
2019-01-17T19:15:40.730Z,57.50
2019-01-17T19:18:10.157Z,57.50
2019-01-17T19:20:39.369Z,57.60
2019-01-17T19:23:08.703Z,57.20
2019-01-17T19:25:37.814Z,57.40
2019-01-17T19:28:07.262Z,56.80
2019-01-17T19:30:36.309Z,56.30
2019-01-17T19:33:05.845Z,56.50
2019-01-17T19:35:34.821Z,56.90
2019-01-17T19:38:03.827Z,56.80
2019-01-17T19:40:33.006Z,56.80
2019-01-17T19:43:02.499Z,57.00
2019-01-17T19:45:32.557Z,57.00
2019-01-17T19:48:01.503Z,56.70
2019-01-17T19:50:34.441Z,56.60
2019-01-17T19:53:03.661Z,56.50
2019-01-17T19:55:32.963Z,56.40
2019-01-17T19:58:02.223Z,56.40
2019-01-17T20:00:35.049Z,56.30
2019-01-17T20:03:05.737Z,56.20
2019-01-17T20:05:36.842Z,56.00
2019-01-17T20:08:06.233Z,56.30
2019-01-17T20:10:37.314Z,56.50
2019-01-17T20:13:07.408Z,57.00
2019-01-17T20:15:41.055Z,56.70
2019-01-17T20:18:11.234Z,56.50
2019-01-17T20:20:41.143Z,56.50
2019-01-17T20:23:10.908Z,56.10
2019-01-17T20:25:40.007Z,55.90
2019-01-17T20:28:35.737Z,55.60
2019-01-17T20:31:24.690Z,55.70
2019-01-17T20:33:55.421Z,55.70
2019-01-17T20:36:25.457Z,55.80
2019-01-17T20:38:57.741Z,55.30
2019-01-17T20:41:35.905Z,55.00
2019-01-17T20:44:28.337Z,55.00
2019-01-17T20:47:15.901Z,54.60
2019-01-17T20:49:49.893Z,54.40
2019-01-17T20:52:36.033Z,54.00
2019-01-17T20:55:05.641Z,53.60
2019-01-17T20:57:36.118Z,53.40
2019-01-17T21:00:20.886Z,53.50
2019-01-17T21:03:11.371Z,53.30
2019-01-17T21:09:06.272Z,53.20
2019-01-17T21:11:39.880Z,52.60
2019-01-17T21:14:25.053Z,52.40
2019-01-17T21:16:54.664Z,52.30
2019-01-17T21:19:45.695Z,52.10
2019-01-17T21:22:14.814Z,52.40
2019-01-17T21:24:47.912Z,52.20
2019-01-17T21:27:36.618Z,52.50
2019-01-17T21:30:14.370Z,52.20
2019-01-17T21:32:49.839Z,52.40
2019-01-17T21:39:00.230Z,52.50
2019-01-17T21:41:36.940Z,52.30
2019-01-17T21:44:08.414Z,52.50
2019-01-17T21:46:40.165Z,52.60
2019-01-17T21:49:10.862Z,52.30
2019-01-17T21:51:44.356Z,52.40
2019-01-17T21:54:18.288Z,52.40
2019-01-17T21:56:59.287Z,52.20
2019-01-17T21:59:32.814Z,52.50
2019-01-17T22:02:06.831Z,52.20
2019-01-17T22:04:37.621Z,52.20
2019-01-17T22:07:12.326Z,52.20
2019-01-17T22:09:45.209Z,52.60
2019-01-17T22:12:23.167Z,52.20
2019-01-17T22:14:55.823Z,51.90
2019-01-17T22:17:30.850Z,52.60
2019-01-17T22:20:04.804Z,52.30
2019-01-17T22:22:37.587Z,52.20
2019-01-17T22:25:24.417Z,51.90
2019-01-17T22:28:13.176Z,52.10
2019-01-17T22:30:43.001Z,52.00
2019-01-17T22:33:12.785Z,52.20
2019-01-17T22:35:42.740Z,52.50
2019-01-17T22:38:11.749Z,53.00
2019-01-17T22:40:40.947Z,53.20
2019-01-17T22:43:17.080Z,53.40
2019-01-17T22:45:55.721Z,53.20
2019-01-17T22:48:24.646Z,53.10
2019-01-17T22:50:57.450Z,53.20
2019-01-17T22:53:27.853Z,53.60
2019-01-17T22:55:57.350Z,53.50
2019-01-17T22:58:28.048Z,53.40
2019-01-17T23:01:21.632Z,53.50
2019-01-17T23:03:55.969Z,53.90
2019-01-17T23:06:25.400Z,54.00
2019-01-17T23:08:57.361Z,54.00
2019-01-17T23:11:29.633Z,53.80
2019-01-17T23:13:57.093Z,54.10
2019-01-17T23:16:26.473Z,53.30
2019-01-17T23:18:58.614Z,53.20
2019-01-17T23:21:51.029Z,53.10
2019-01-17T23:24:21.017Z,53.00
2019-01-17T23:26:52.346Z,53.20
2019-01-17T23:29:27.526Z,53.20
2019-01-17T23:31:56.566Z,53.20
2019-01-17T23:34:27.409Z,53.60
2019-01-17T23:37:01.807Z,54.00
2019-01-17T23:39:30.787Z,54.20
2019-01-17T23:42:01.168Z,54.30
2019-01-17T23:44:32.497Z,54.40
2019-01-17T23:47:03.021Z,54.70
2019-01-17T23:49:32.981Z,54.80
2019-01-17T23:52:03.085Z,54.90
2019-01-17T23:54:36.564Z,55.20
2019-01-17T23:57:05.562Z,55.40
2019-01-17T23:59:34.421Z,55.40
